createdAt,value
2019-06-26T00:00:39.835Z,22.97
2019-06-26T00:03:09.911Z,22.82
2019-06-26T00:05:39.953Z,22.70
2019-06-26T00:08:10.964Z,22.60
2019-06-26T00:10:40.939Z,22.49
2019-06-26T00:13:25.218Z,22.38
2019-06-26T00:15:43.102Z,22.31
2019-06-26T00:18:13.189Z,22.38
2019-06-26T00:20:42.964Z,22.44
2019-06-26T00:23:12.859Z,22.44
2019-06-26T00:25:42.835Z,22.31
2019-06-26T00:28:13.059Z,22.12
2019-06-26T00:30:43.264Z,22.02
2019-06-26T00:33:13.057Z,22.07
2019-06-26T00:35:42.835Z,22.10
2019-06-26T00:38:12.583Z,22.09
2019-06-26T00:40:43.513Z,22.08
2019-06-26T00:43:13.291Z,22.10
2019-06-26T00:45:43.110Z,22.15
2019-06-26T00:48:12.886Z,22.21
2019-06-26T00:50:42.714Z,22.29
2019-06-26T00:53:12.415Z,22.40
2019-06-26T00:55:42.135Z,22.51
2019-06-26T00:58:12.932Z,22.52
2019-06-26T01:00:46.855Z,22.40
2019-06-26T01:03:16.636Z,22.31
2019-06-26T01:05:46.370Z,22.23
2019-06-26T01:08:16.088Z,22.16
2019-06-26T01:10:45.942Z,22.01
2019-06-26T01:13:15.640Z,21.87
2019-06-26T01:15:45.353Z,21.76
2019-06-26T01:18:15.070Z,21.74
2019-06-26T01:20:44.833Z,21.76
2019-06-26T01:23:14.537Z,21.86
2019-06-26T01:25:44.250Z,21.97
2019-06-26T01:28:13.941Z,21.96
2019-06-26T01:30:43.790Z,21.96
2019-06-26T01:33:13.641Z,22.12
2019-06-26T01:35:43.352Z,22.19
2019-06-26T01:38:14.028Z,22.22
2019-06-26T01:40:43.737Z,22.23
2019-06-26T01:43:13.442Z,22.26
2019-06-26T01:45:43.151Z,22.24
2019-06-26T01:48:12.876Z,22.13
2019-06-26T01:50:42.617Z,22.01
2019-06-26T01:53:12.334Z,21.89
2019-06-26T01:55:42.061Z,21.95
2019-06-26T01:58:11.758Z,22.08
2019-06-26T02:00:41.483Z,22.05
2019-06-26T02:03:11.267Z,22.08
2019-06-26T02:05:40.995Z,22.10
2019-06-26T02:08:10.696Z,22.12
2019-06-26T02:10:40.408Z,22.11
2019-06-26T02:13:10.129Z,22.11
2019-06-26T02:15:40.028Z,22.10
2019-06-26T02:18:28.771Z,22.12
2019-06-26T02:20:58.582Z,22.16
2019-06-26T02:23:28.467Z,22.27
2019-06-26T02:25:58.379Z,22.33
2019-06-26T02:28:28.077Z,22.36
2019-06-26T02:30:57.864Z,22.39
2019-06-26T02:33:28.756Z,22.37
2019-06-26T02:35:58.535Z,22.33
2019-06-26T02:38:28.312Z,22.26
2019-06-26T02:40:58.101Z,22.20
2019-06-26T02:43:27.825Z,22.18
2019-06-26T02:45:57.544Z,22.20
2019-06-26T02:48:27.299Z,22.23
2019-06-26T02:50:57.000Z,22.25
2019-06-26T02:53:26.729Z,22.26
2019-06-26T02:55:56.561Z,22.28
2019-06-26T02:58:26.440Z,22.31
2019-06-26T03:00:56.286Z,22.29
2019-06-26T03:03:26.003Z,22.26
2019-06-26T03:05:55.758Z,22.24
2019-06-26T03:08:25.577Z,22.25
2019-06-26T03:10:55.442Z,22.26
2019-06-26T03:13:25.320Z,22.27
2019-06-26T03:15:55.030Z,22.23
2019-06-26T03:18:24.764Z,22.22
2019-06-26T03:20:56.283Z,22.20
2019-06-26T03:23:26.092Z,22.22
2019-06-26T03:25:55.800Z,22.22
2019-06-26T03:28:25.663Z,22.27
2019-06-26T03:30:58.480Z,22.31
2019-06-26T03:33:28.311Z,22.34
2019-06-26T03:35:58.036Z,22.38
2019-06-26T03:38:27.747Z,22.40
2019-06-26T03:40:57.536Z,22.43
2019-06-26T03:43:27.301Z,22.52
2019-06-26T03:45:57.113Z,22.68
2019-06-26T03:48:26.816Z,22.90
2019-06-26T03:50:56.536Z,23.19
2019-06-26T03:53:26.307Z,23.54
2019-06-26T03:55:56.046Z,23.91
2019-06-26T03:58:25.778Z,24.27
2019-06-26T04:00:56.739Z,24.55
2019-06-26T04:03:26.470Z,24.78
2019-06-26T04:05:56.243Z,24.92
2019-06-26T04:08:25.958Z,25.05
2019-06-26T04:10:55.691Z,25.25
2019-06-26T04:13:25.454Z,25.32
2019-06-26T04:15:55.857Z,25.26
2019-06-26T04:18:25.629Z,25.32
2019-06-26T04:20:55.446Z,25.73
2019-06-26T04:23:25.172Z,26.22
2019-06-26T04:25:54.859Z,26.65
2019-06-26T04:28:24.652Z,27.10
2019-06-26T04:30:54.349Z,27.28
2019-06-26T04:33:24.090Z,27.66
2019-06-26T04:35:53.808Z,28.13
2019-06-26T04:38:23.516Z,28.42
2019-06-26T04:40:52.366Z,28.63
2019-06-26T04:43:21.941Z,28.89
2019-06-26T04:45:58.091Z,29.09
2019-06-26T04:48:23.140Z,29.44
2019-06-26T04:50:52.836Z,29.76
2019-06-26T04:53:22.613Z,30.12
2019-06-26T04:55:52.407Z,30.54
2019-06-26T04:58:22.173Z,30.88
2019-06-26T05:00:51.968Z,31.02
2019-06-26T05:03:21.702Z,31.21
2019-06-26T05:05:51.419Z,31.43
2019-06-26T05:08:21.136Z,31.52
2019-06-26T05:10:51.903Z,31.75
2019-06-26T05:13:22.577Z,32.09
2019-06-26T05:15:52.262Z,32.33
2019-06-26T05:18:22.013Z,32.46
2019-06-26T05:20:51.719Z,32.80
2019-06-26T05:23:21.487Z,33.22
2019-06-26T05:25:51.211Z,33.58
2019-06-26T05:28:20.923Z,33.77
2019-06-26T05:30:50.693Z,33.70
2019-06-26T05:33:20.366Z,33.90
2019-06-26T05:35:50.155Z,34.23
2019-06-26T05:38:19.929Z,34.51
2019-06-26T05:40:49.649Z,34.67
2019-06-26T05:43:18.650Z,34.83
2019-06-26T05:45:47.570Z,34.75
2019-06-26T05:48:16.726Z,35.07
2019-06-26T05:50:45.741Z,35.59
2019-06-26T05:53:14.561Z,36.14
2019-06-26T05:55:43.360Z,36.65
2019-06-26T05:58:12.396Z,37.14
2019-06-26T06:00:41.234Z,37.25
2019-06-26T06:03:10.040Z,37.45
2019-06-26T06:05:39.193Z,37.60
2019-06-26T06:08:08.279Z,37.68
2019-06-26T06:10:38.498Z,37.60
2019-06-26T06:13:07.338Z,37.72
2019-06-26T06:15:36.505Z,37.85
2019-06-26T06:18:05.534Z,38.23
2019-06-26T06:20:37.416Z,38.57
2019-06-26T06:23:06.337Z,38.81
2019-06-26T06:25:35.350Z,38.82
2019-06-26T06:28:04.219Z,38.72
2019-06-26T06:30:32.965Z,38.54
2019-06-26T06:33:01.699Z,38.42
2019-06-26T06:35:30.441Z,38.07
2019-06-26T06:37:59.235Z,37.92
2019-06-26T06:40:28.002Z,37.51
2019-06-26T06:42:56.974Z,37.63
2019-06-26T06:45:26.506Z,37.93
2019-06-26T06:47:55.470Z,37.89
2019-06-26T06:50:24.242Z,38.16
2019-06-26T06:52:52.968Z,38.57
2019-06-26T06:55:21.773Z,38.71
2019-06-26T06:57:50.538Z,39.07
2019-06-26T07:00:19.763Z,38.89
2019-06-26T07:02:48.499Z,38.57
2019-06-26T07:05:17.430Z,38.81
2019-06-26T07:07:46.158Z,38.73
2019-06-26T07:10:15.106Z,38.66
2019-06-26T07:12:43.979Z,38.56
2019-06-26T07:15:13.098Z,38.88
2019-06-26T07:17:41.900Z,39.26
2019-06-26T07:20:10.907Z,39.59
2019-06-26T07:22:39.638Z,39.20
2019-06-26T07:25:08.559Z,38.86
2019-06-26T07:27:37.500Z,38.98
2019-06-26T07:30:06.526Z,39.43
2019-06-26T07:32:35.336Z,40.10
2019-06-26T07:35:05.546Z,40.53
2019-06-26T07:37:34.291Z,40.72
2019-06-26T07:40:03.103Z,41.02
2019-06-26T07:42:32.692Z,41.34
2019-06-26T07:45:02.446Z,41.21
2019-06-26T07:47:42.484Z,40.75
2019-06-26T07:50:03.890Z,40.67
2019-06-26T07:52:33.912Z,40.57
2019-06-26T07:55:04.485Z,40.31
2019-06-26T07:57:34.299Z,40.12
2019-06-26T08:00:05.190Z,39.94
2019-06-26T08:02:35.193Z,39.75
2019-06-26T08:05:05.879Z,39.10
2019-06-26T08:08:19.231Z,39.00
2019-06-26T08:10:48.949Z,39.40
2019-06-26T08:13:18.797Z,39.78
2019-06-26T08:15:48.748Z,40.23
2019-06-26T08:18:18.594Z,40.45
2019-06-26T08:21:07.288Z,40.28
2019-06-26T08:23:22.195Z,40.86
2019-06-26T08:25:52.094Z,40.81
2019-06-26T08:28:22.153Z,40.50
2019-06-26T08:30:52.001Z,40.50
2019-06-26T08:33:21.717Z,41.12
2019-06-26T08:35:51.708Z,40.95
2019-06-26T08:38:22.612Z,40.62
2019-06-26T08:40:52.542Z,40.77
2019-06-26T08:43:22.525Z,40.92
2019-06-26T08:45:53.385Z,41.15
2019-06-26T08:48:39.143Z,41.60
2019-06-26T08:50:54.817Z,41.60
2019-06-26T08:53:24.520Z,41.37
2019-06-26T08:55:54.470Z,41.05
2019-06-26T08:58:26.375Z,41.40
2019-06-26T09:00:56.094Z,41.99
2019-06-26T09:03:25.039Z,42.39
2019-06-26T09:05:54.619Z,42.66
2019-06-26T09:08:24.911Z,43.10
2019-06-26T09:10:54.897Z,43.29
2019-06-26T09:13:24.818Z,43.20
2019-06-26T09:15:54.657Z,43.19
2019-06-26T09:18:34.808Z,42.89
2019-06-26T09:20:57.784Z,42.68
2019-06-26T09:23:30.955Z,42.78
2019-06-26T09:25:59.202Z,43.07
2019-06-26T09:28:29.154Z,43.59
2019-06-26T09:30:59.246Z,43.69
2019-06-26T09:33:32.253Z,43.18
2019-06-26T09:36:00.785Z,43.00
2019-06-26T09:38:30.746Z,43.39
2019-06-26T09:41:01.058Z,43.05
2019-06-26T09:43:30.885Z,42.92
2019-06-26T09:46:00.709Z,43.03
2019-06-26T09:48:30.592Z,43.54
2019-06-26T09:51:00.520Z,43.79
2019-06-26T09:53:46.064Z,44.30
2019-06-26T09:56:02.000Z,44.62
2019-06-26T09:58:31.793Z,44.98
2019-06-26T10:01:01.713Z,44.95
2019-06-26T10:03:31.759Z,44.62
2019-06-26T10:06:01.466Z,44.71
2019-06-26T10:08:33.937Z,44.85
2019-06-26T10:11:03.736Z,44.85
2019-06-26T10:13:33.902Z,44.72
2019-06-26T10:16:03.620Z,44.92
2019-06-26T10:18:35.369Z,44.92
2019-06-26T10:21:05.080Z,44.61
2019-06-26T10:23:35.009Z,44.44
2019-06-26T10:26:04.778Z,43.78
2019-06-26T10:28:34.575Z,43.79
2019-06-26T10:31:04.570Z,43.84
2019-06-26T10:33:34.396Z,43.91
2019-06-26T10:36:04.258Z,44.16
2019-06-26T10:38:34.151Z,44.09
2019-06-26T10:41:04.020Z,44.68
2019-06-26T10:43:33.838Z,45.30
2019-06-26T10:46:03.730Z,44.73
2019-06-26T10:48:33.530Z,43.94
2019-06-26T10:51:03.383Z,42.97
2019-06-26T10:53:33.773Z,42.58
2019-06-26T10:56:03.655Z,42.85
2019-06-26T10:58:33.375Z,42.84
2019-06-26T11:01:03.352Z,42.91
2019-06-26T11:03:33.184Z,41.83
2019-06-26T11:06:03.020Z,41.58
2019-06-26T11:08:32.897Z,41.75
2019-06-26T11:11:03.090Z,41.99
2019-06-26T11:13:32.924Z,42.50
2019-06-26T11:16:02.646Z,41.85
2019-06-26T11:18:32.417Z,42.34
2019-06-26T11:21:02.147Z,42.63
2019-06-26T11:23:32.203Z,42.70
2019-06-26T11:26:02.040Z,42.81
2019-06-26T11:28:31.962Z,41.98
2019-06-26T11:31:01.878Z,41.41
2019-06-26T11:33:31.718Z,41.48
2019-06-26T11:36:01.656Z,41.74
2019-06-26T11:38:31.687Z,41.05
2019-06-26T11:41:02.110Z,41.37
2019-06-26T11:43:32.276Z,42.04
2019-06-26T11:46:02.360Z,42.51
2019-06-26T11:48:34.505Z,42.11
2019-06-26T11:51:04.511Z,41.98
2019-06-26T11:53:34.507Z,42.21
2019-06-26T11:56:05.031Z,42.41
2019-06-26T11:58:34.902Z,42.28
2019-06-26T12:01:04.809Z,42.58
2019-06-26T12:03:34.979Z,42.64
2019-06-26T12:06:18.010Z,42.81
2019-06-26T12:08:36.473Z,42.82
2019-06-26T12:11:06.298Z,42.92
2019-06-26T12:13:36.276Z,42.25
2019-06-26T12:16:08.812Z,42.36
2019-06-26T12:18:38.747Z,42.83
2019-06-26T12:21:08.730Z,42.94
2019-06-26T12:23:38.676Z,42.59
2019-06-26T12:26:08.670Z,42.40
2019-06-26T12:28:38.575Z,42.57
2019-06-26T12:31:09.036Z,42.52
2019-06-26T12:33:39.628Z,42.65
2019-06-26T12:36:09.509Z,42.64
2019-06-26T12:38:39.253Z,42.60
2019-06-26T12:41:09.079Z,41.82
2019-06-26T12:43:39.520Z,41.12
2019-06-26T12:46:11.097Z,40.21
2019-06-26T12:48:41.222Z,39.45
2019-06-26T12:51:11.231Z,38.87
2019-06-26T12:53:41.040Z,38.39
2019-06-26T12:56:10.836Z,38.06
2019-06-26T12:58:40.551Z,37.92
2019-06-26T13:01:10.364Z,37.75
2019-06-26T13:03:42.048Z,37.51
2019-06-26T13:06:11.964Z,37.43
2019-06-26T13:08:41.768Z,37.35
2019-06-26T13:11:11.566Z,37.37
2019-06-26T13:13:41.448Z,37.42
2019-06-26T13:16:11.233Z,37.45
2019-06-26T13:18:41.035Z,37.34
2019-06-26T13:21:17.581Z,37.17
2019-06-26T13:23:48.949Z,37.16
2019-06-26T13:26:19.035Z,37.13
2019-06-26T13:28:48.763Z,36.98
2019-06-26T13:31:18.744Z,37.00
2019-06-26T13:33:48.423Z,37.03
2019-06-26T13:36:18.437Z,36.81
2019-06-26T13:38:50.476Z,36.77
2019-06-26T13:41:20.202Z,36.88
2019-06-26T13:43:50.473Z,36.90
2019-06-26T13:46:20.283Z,36.76
2019-06-26T13:48:50.231Z,36.78
2019-06-26T13:51:21.685Z,36.93
2019-06-26T13:53:53.098Z,36.97
2019-06-26T13:56:22.820Z,36.89
2019-06-26T13:58:52.771Z,36.93
2019-06-26T14:01:23.296Z,36.85
2019-06-26T14:03:53.104Z,36.74
2019-06-26T14:06:22.827Z,36.59
2019-06-26T14:08:52.853Z,36.49
2019-06-26T14:11:22.604Z,36.38
2019-06-26T14:13:52.315Z,36.38
2019-06-26T14:16:22.052Z,36.36
2019-06-26T14:18:51.763Z,36.25
2019-06-26T14:21:25.984Z,36.20
2019-06-26T14:23:52.938Z,36.19
2019-06-26T14:26:22.648Z,36.15
2019-06-26T14:28:54.058Z,36.11
2019-06-26T14:31:24.045Z,36.07
2019-06-26T14:33:53.823Z,35.99
2019-06-26T14:36:23.668Z,35.85
2019-06-26T14:38:53.343Z,35.71
2019-06-26T14:41:23.162Z,35.71
2019-06-26T14:43:53.092Z,35.68
2019-06-26T14:46:23.921Z,35.70
2019-06-26T14:48:53.725Z,35.61
2019-06-26T14:51:23.811Z,35.59
2019-06-26T14:53:53.898Z,35.60
2019-06-26T14:56:23.606Z,35.52
2019-06-26T14:58:53.316Z,35.34
2019-06-26T15:01:23.446Z,35.29
2019-06-26T15:03:53.145Z,35.28
2019-06-26T15:06:23.066Z,35.21
2019-06-26T15:08:59.147Z,35.12
2019-06-26T15:11:28.867Z,34.98
2019-06-26T15:13:58.738Z,34.80
2019-06-26T15:16:30.508Z,34.73
2019-06-26T15:19:00.273Z,34.82
2019-06-26T15:21:30.636Z,34.81
2019-06-26T15:24:02.837Z,34.73
2019-06-26T15:26:37.762Z,34.73
2019-06-26T15:29:09.063Z,34.65
2019-06-26T15:31:38.900Z,34.58
2019-06-26T15:34:08.615Z,34.58
2019-06-26T15:36:38.379Z,34.59
2019-06-26T15:39:08.423Z,34.43
2019-06-26T15:41:38.208Z,34.43
2019-06-26T15:44:08.011Z,34.43
2019-06-26T15:46:37.834Z,34.34
2019-06-26T15:49:07.537Z,34.31
2019-06-26T15:51:37.797Z,34.28
2019-06-26T15:54:09.369Z,34.30
2019-06-26T15:56:39.426Z,34.13
2019-06-26T15:59:09.119Z,34.04
2019-06-26T16:01:44.360Z,33.95
2019-06-26T16:04:14.122Z,33.85
2019-06-26T16:06:44.982Z,33.74
2019-06-26T16:09:13.979Z,33.66
2019-06-26T16:11:42.967Z,33.50
2019-06-26T16:14:12.125Z,33.32
2019-06-26T16:16:42.735Z,33.25
2019-06-26T16:19:19.049Z,33.25
2019-06-26T16:21:48.763Z,33.24
2019-06-26T16:24:17.992Z,33.17
2019-06-26T16:26:48.169Z,33.12
2019-06-26T16:29:17.578Z,33.02
2019-06-26T16:31:47.801Z,32.96
2019-06-26T16:34:17.831Z,32.91
2019-06-26T16:36:46.793Z,32.84
2019-06-26T16:39:15.699Z,32.78
2019-06-26T16:41:44.503Z,32.71
2019-06-26T16:44:13.299Z,32.62
2019-06-26T16:46:42.224Z,32.49
2019-06-26T16:49:10.961Z,32.30
2019-06-26T16:51:39.724Z,32.17
2019-06-26T16:54:08.675Z,32.10
2019-06-26T16:56:37.755Z,32.01
2019-06-26T16:59:06.517Z,31.88
2019-06-26T17:01:35.490Z,31.75
2019-06-26T17:04:04.646Z,31.62
2019-06-26T17:06:33.457Z,31.53
2019-06-26T17:09:02.352Z,31.46
2019-06-26T17:11:33.907Z,31.43
2019-06-26T17:14:03.984Z,31.33
2019-06-26T17:16:33.822Z,31.17
2019-06-26T17:19:03.743Z,31.07
2019-06-26T17:21:33.685Z,30.99
2019-06-26T17:24:03.588Z,30.93
2019-06-26T17:26:33.478Z,30.84
2019-06-26T17:29:02.513Z,30.69
2019-06-26T17:31:32.261Z,30.48
2019-06-26T17:34:02.033Z,30.30
2019-06-26T17:36:32.760Z,30.21
2019-06-26T17:39:02.700Z,30.09
2019-06-26T17:41:33.254Z,30.02
2019-06-26T17:44:02.989Z,29.97
2019-06-26T17:46:32.031Z,29.84
2019-06-26T17:49:00.781Z,29.68
2019-06-26T17:51:29.650Z,29.49
2019-06-26T17:53:58.569Z,29.38
2019-06-26T17:56:27.431Z,29.24
2019-06-26T17:58:56.432Z,29.11
2019-06-26T18:01:26.316Z,28.99
2019-06-26T18:03:56.495Z,28.91
2019-06-26T18:06:26.277Z,28.89
2019-06-26T18:08:56.038Z,28.81
2019-06-26T18:11:25.744Z,28.63
2019-06-26T18:13:55.639Z,28.51
2019-06-26T18:16:25.520Z,28.36
2019-06-26T18:18:55.605Z,28.20
2019-06-26T18:21:28.639Z,28.00
2019-06-26T18:23:59.149Z,27.87
2019-06-26T18:26:29.277Z,27.74
2019-06-26T18:28:59.024Z,27.66
2019-06-26T18:31:30.682Z,27.56
2019-06-26T18:34:00.188Z,27.51
2019-06-26T18:36:33.390Z,27.42
2019-06-26T18:39:01.364Z,27.29
2019-06-26T18:41:31.741Z,27.18
2019-06-26T18:44:01.468Z,27.09
2019-06-26T18:46:31.177Z,26.99
2019-06-26T18:49:00.942Z,26.86
2019-06-26T18:51:30.753Z,26.72
2019-06-26T18:54:01.199Z,26.61
2019-06-26T18:56:31.078Z,26.49
2019-06-26T18:59:00.850Z,26.41
2019-06-26T19:01:30.879Z,26.29
2019-06-26T19:03:59.776Z,26.21
2019-06-26T19:06:28.712Z,26.12
2019-06-26T19:08:58.551Z,26.02
2019-06-26T19:11:27.274Z,25.96
2019-06-26T19:13:56.054Z,25.83
2019-06-26T19:16:24.773Z,25.74
2019-06-26T19:18:53.696Z,25.68
2019-06-26T19:21:22.627Z,25.58
2019-06-26T19:23:51.495Z,25.45
2019-06-26T19:26:23.279Z,25.30
2019-06-26T19:28:52.046Z,25.18
2019-06-26T19:31:20.838Z,25.11
2019-06-26T19:33:49.694Z,25.03
2019-06-26T19:36:21.735Z,24.94
2019-06-26T19:38:51.191Z,24.83
2019-06-26T19:41:20.975Z,24.73
2019-06-26T19:43:51.017Z,24.65
2019-06-26T19:46:20.691Z,24.54
2019-06-26T19:48:50.409Z,24.45
2019-06-26T19:51:20.130Z,24.39
2019-06-26T19:53:49.849Z,24.26
2019-06-26T19:56:20.288Z,24.15
2019-06-26T19:58:50.046Z,24.06
2019-06-26T20:01:19.754Z,23.91
2019-06-26T20:03:49.445Z,23.83
2019-06-26T20:06:19.250Z,23.70
2019-06-26T20:08:56.181Z,23.58
2019-06-26T20:11:21.512Z,23.51
2019-06-26T20:13:51.212Z,23.40
2019-06-26T20:16:21.080Z,23.27
2019-06-26T20:18:50.821Z,23.18
2019-06-26T20:21:20.678Z,23.08
2019-06-26T20:23:50.412Z,23.00
2019-06-26T20:26:20.135Z,22.95
2019-06-26T20:28:49.007Z,22.89
2019-06-26T20:31:18.112Z,22.78
2019-06-26T20:33:46.845Z,22.74
2019-06-26T20:36:17.522Z,22.61
2019-06-26T20:38:48.172Z,22.51
2019-06-26T20:41:18.032Z,22.40
2019-06-26T20:43:48.105Z,22.35
2019-06-26T20:46:16.983Z,22.28
2019-06-26T20:48:45.712Z,22.21
2019-06-26T20:51:14.476Z,22.17
2019-06-26T20:53:44.246Z,22.12
2019-06-26T20:56:13.128Z,21.99
2019-06-26T20:58:42.004Z,21.87
2019-06-26T21:01:10.754Z,21.71
2019-06-26T21:03:39.503Z,21.62
2019-06-26T21:06:10.053Z,21.51
2019-06-26T21:08:39.778Z,21.37
2019-06-26T21:11:09.481Z,21.20
2019-06-26T21:13:39.218Z,21.13
2019-06-26T21:16:08.923Z,21.05
2019-06-26T21:18:37.775Z,20.95
2019-06-26T21:21:06.524Z,20.86
2019-06-26T21:23:35.288Z,20.76
2019-06-26T21:26:04.012Z,20.59
2019-06-26T21:28:32.793Z,20.59
2019-06-26T21:31:01.640Z,20.47
2019-06-26T21:33:31.415Z,20.45
2019-06-26T21:36:01.187Z,20.43
2019-06-26T21:38:30.059Z,20.37
2019-06-26T21:40:59.696Z,20.27
2019-06-26T21:43:29.446Z,20.19
2019-06-26T21:45:58.323Z,20.04
2019-06-26T21:48:27.073Z,19.91
2019-06-26T21:50:55.862Z,19.80
2019-06-26T21:53:24.683Z,19.71
2019-06-26T21:56:11.205Z,19.61
2019-06-26T21:58:57.978Z,19.47
2019-06-26T22:01:45.680Z,19.41
2019-06-26T22:04:32.748Z,19.37
2019-06-26T22:07:09.246Z,19.29
2019-06-26T22:09:39.879Z,19.20
2019-06-26T22:12:09.064Z,19.15
2019-06-26T22:14:37.797Z,19.10
2019-06-26T22:17:07.678Z,19.07
2019-06-26T22:19:37.396Z,18.94
2019-06-26T22:22:07.107Z,18.86
2019-06-26T22:24:36.920Z,18.80
2019-06-26T22:27:06.636Z,18.67
2019-06-26T22:29:36.340Z,18.59
2019-06-26T22:32:06.074Z,18.58
2019-06-26T22:34:35.931Z,18.51
2019-06-26T22:37:05.720Z,18.47
2019-06-26T22:39:35.412Z,18.42
2019-06-26T22:42:05.205Z,18.40
2019-06-26T22:44:34.968Z,18.39
2019-06-26T22:47:04.684Z,18.35
2019-06-26T22:49:34.378Z,18.25
2019-06-26T22:52:04.150Z,18.18
2019-06-26T22:54:33.849Z,18.15
2019-06-26T22:57:03.597Z,18.11
2019-06-26T22:59:33.323Z,18.11
2019-06-26T23:02:03.133Z,18.08
2019-06-26T23:04:32.861Z,18.07
2019-06-26T23:07:02.634Z,18.04
2019-06-26T23:09:32.337Z,18.02
2019-06-26T23:12:02.293Z,17.99
2019-06-26T23:14:32.239Z,17.92
2019-06-26T23:17:01.937Z,17.83
2019-06-26T23:19:31.669Z,17.80
2019-06-26T23:22:01.389Z,17.77
2019-06-26T23:24:31.120Z,17.67
2019-06-26T23:27:00.797Z,17.56
2019-06-26T23:29:30.531Z,17.49
2019-06-26T23:32:03.266Z,17.43
2019-06-26T23:34:31.669Z,17.44
2019-06-26T23:37:01.393Z,17.43
2019-06-26T23:39:31.149Z,17.44
2019-06-26T23:42:00.937Z,17.42
2019-06-26T23:44:30.704Z,17.43
2019-06-26T23:47:00.416Z,17.41
2019-06-26T23:49:30.147Z,17.34
2019-06-26T23:51:59.826Z,17.34
2019-06-26T23:54:29.545Z,17.30
2019-06-26T23:56:59.245Z,17.30
2019-06-26T23:59:28.973Z,17.28
